createdAt,value
2019-05-22T00:00:16.749Z,63.11
2019-05-22T00:02:47.419Z,67.35
2019-05-22T00:05:18.068Z,64.95
2019-05-22T00:07:48.907Z,63.93
2019-05-22T00:10:25.042Z,62.95
2019-05-22T00:12:54.804Z,61.40
2019-05-22T00:15:24.868Z,61.11
2019-05-22T00:17:54.454Z,59.35
2019-05-22T00:20:25.863Z,58.58
2019-05-22T00:22:55.127Z,60.42
2019-05-22T00:25:26.667Z,62.75
2019-05-22T00:27:55.816Z,65.56
2019-05-22T00:30:28.986Z,64.82
2019-05-22T00:33:00.090Z,63.41
2019-05-22T00:35:29.293Z,62.24
2019-05-22T00:37:58.557Z,61.35
2019-05-22T00:40:29.043Z,60.53
2019-05-22T00:43:05.014Z,60.04
2019-05-22T00:45:31.377Z,59.31
2019-05-22T00:48:02.448Z,58.94
2019-05-22T00:50:34.284Z,60.24
2019-05-22T00:53:20.661Z,61.85
2019-05-22T00:55:49.688Z,64.99
2019-05-22T00:58:23.092Z,68.35
2019-05-22T01:00:56.375Z,66.34
2019-05-22T01:03:29.993Z,64.95
2019-05-22T01:05:59.122Z,63.28
2019-05-22T01:08:28.691Z,62.02
2019-05-22T01:10:57.971Z,61.16
2019-05-22T01:13:34.543Z,60.07
2019-05-22T01:16:05.484Z,59.79
2019-05-22T01:18:35.969Z,60.25
2019-05-22T01:21:06.627Z,58.99
2019-05-22T01:23:36.726Z,57.89
2019-05-22T01:26:05.842Z,61.60
2019-05-22T01:28:37.197Z,64.32
2019-05-22T01:31:16.555Z,67.17
2019-05-22T01:33:47.227Z,66.47
2019-05-22T01:36:20.473Z,64.08
2019-05-22T01:38:49.537Z,63.20
2019-05-22T01:41:21.398Z,61.80
2019-05-22T01:43:52.292Z,61.12
2019-05-22T01:46:22.110Z,60.06
2019-05-22T01:48:53.859Z,59.23
2019-05-22T01:51:23.021Z,59.32
2019-05-22T01:53:52.056Z,60.91
2019-05-22T01:56:21.256Z,64.34
2019-05-22T01:58:50.818Z,67.12
2019-05-22T02:01:21.682Z,65.46
2019-05-22T02:03:52.216Z,63.92
2019-05-22T02:06:23.350Z,63.00
2019-05-22T02:09:13.517Z,61.63
2019-05-22T02:11:43.773Z,60.77
2019-05-22T02:14:15.531Z,60.46
2019-05-22T02:16:56.217Z,59.87
2019-05-22T02:19:16.587Z,59.54
2019-05-22T02:21:45.997Z,58.47
2019-05-22T02:24:16.108Z,59.03
2019-05-22T02:26:46.080Z,61.82
2019-05-22T02:29:17.019Z,64.94
2019-05-22T02:31:47.746Z,67.84
2019-05-22T02:34:17.066Z,66.38
2019-05-22T02:36:46.168Z,64.29
2019-05-22T02:39:18.316Z,63.24
2019-05-22T02:41:58.002Z,62.03
2019-05-22T02:44:28.949Z,61.58
2019-05-22T02:47:17.096Z,61.04
2019-05-22T02:49:31.070Z,60.59
2019-05-22T02:52:01.000Z,60.09
2019-05-22T02:54:31.695Z,59.48
2019-05-22T02:57:01.407Z,59.35
2019-05-22T02:59:31.476Z,59.45
2019-05-22T03:02:02.152Z,63.08
2019-05-22T03:04:53.815Z,66.22
2019-05-22T03:07:25.823Z,64.52
2019-05-22T03:09:55.385Z,62.85
2019-05-22T03:12:24.422Z,61.81
2019-05-22T03:14:54.587Z,60.20
2019-05-22T03:17:31.598Z,60.06
2019-05-22T03:20:03.724Z,59.55
2019-05-22T03:22:44.700Z,58.32
2019-05-22T03:25:18.225Z,58.53
2019-05-22T03:27:50.823Z,61.33
2019-05-22T03:30:33.869Z,62.46
2019-05-22T03:33:05.200Z,65.81
2019-05-22T03:35:47.696Z,64.13
2019-05-22T03:38:18.202Z,62.13
2019-05-22T03:40:50.647Z,60.11
2019-05-22T03:43:29.150Z,58.41
2019-05-22T03:45:59.130Z,57.27
2019-05-22T03:48:35.112Z,60.47
2019-05-22T03:51:12.702Z,63.03
2019-05-22T03:53:42.448Z,64.48
2019-05-22T03:56:12.648Z,62.69
2019-05-22T03:58:42.286Z,60.76
2019-05-22T04:01:11.577Z,59.45
2019-05-22T04:03:40.951Z,57.76
2019-05-22T04:06:10.006Z,56.58
2019-05-22T04:08:39.859Z,59.72
2019-05-22T04:11:10.411Z,62.60
2019-05-22T04:13:40.096Z,64.43
2019-05-22T04:16:10.754Z,63.10
2019-05-22T04:18:40.829Z,60.79
2019-05-22T04:21:10.068Z,59.58
2019-05-22T04:23:40.091Z,57.32
2019-05-22T04:26:11.225Z,59.21
2019-05-22T04:28:52.674Z,61.48
2019-05-22T04:31:44.467Z,61.45
2019-05-22T04:34:13.543Z,64.02
2019-05-22T04:36:42.623Z,66.76
2019-05-22T04:39:24.569Z,65.14
2019-05-22T04:41:55.164Z,61.60
2019-05-22T04:44:24.404Z,58.63
2019-05-22T04:46:54.146Z,57.09
2019-05-22T04:49:24.567Z,58.79
2019-05-22T04:51:53.799Z,58.45
2019-05-22T04:54:22.985Z,61.04
2019-05-22T04:56:52.344Z,64.48
2019-05-22T04:59:21.500Z,65.07
2019-05-22T05:01:50.494Z,62.70
2019-05-22T05:04:19.565Z,60.58
2019-05-22T05:06:49.906Z,59.20
2019-05-22T05:09:19.513Z,56.16
2019-05-22T05:11:48.591Z,58.20
2019-05-22T05:14:17.666Z,56.92
2019-05-22T05:16:47.634Z,58.73
2019-05-22T05:19:16.653Z,62.01
2019-05-22T05:21:45.687Z,66.37
2019-05-22T05:24:14.711Z,63.61
2019-05-22T05:26:44.705Z,61.55
2019-05-22T05:29:28.585Z,58.74
2019-05-22T05:31:59.050Z,57.35
2019-05-22T05:34:36.088Z,58.61
2019-05-22T05:37:06.838Z,59.86
2019-05-22T05:39:42.883Z,62.13
2019-05-22T05:42:11.993Z,62.90
2019-05-22T05:44:41.016Z,62.49
2019-05-22T05:47:10.126Z,60.31
2019-05-22T05:49:39.356Z,56.61
2019-05-22T05:52:10.221Z,57.59
2019-05-22T05:54:39.282Z,60.55
2019-05-22T05:57:38.811Z,64.00
2019-05-22T06:00:14.213Z,65.34
2019-05-22T06:02:56.155Z,61.94
2019-05-22T06:05:14.262Z,58.63
2019-05-22T06:07:43.298Z,57.61
2019-05-22T06:10:37.961Z,57.83
2019-05-22T06:13:07.342Z,62.44
2019-05-22T06:15:54.908Z,62.77
2019-05-22T06:18:36.540Z,63.02
2019-05-22T06:21:06.307Z,57.47
2019-05-22T06:23:44.157Z,57.39
2019-05-22T06:26:26.777Z,59.40
2019-05-22T06:28:57.467Z,61.67
2019-05-22T06:31:59.343Z,63.75
2019-05-22T06:34:28.587Z,63.01
2019-05-22T06:36:58.889Z,58.34
2019-05-22T06:39:28.013Z,59.03
2019-05-22T06:41:57.010Z,60.17
2019-05-22T06:44:35.294Z,62.51
2019-05-22T06:47:05.993Z,63.34
2019-05-22T06:49:37.982Z,62.19
2019-05-22T06:52:07.641Z,58.60
2019-05-22T06:54:37.555Z,55.91
2019-05-22T06:57:09.131Z,58.06
2019-05-22T06:59:38.534Z,60.31
2019-05-22T07:02:09.604Z,61.82
2019-05-22T07:04:39.085Z,64.25
2019-05-22T07:07:11.803Z,63.11
2019-05-22T07:09:41.216Z,60.75
2019-05-22T07:12:10.959Z,57.12
2019-05-22T07:14:47.749Z,58.86
2019-05-22T07:17:18.592Z,61.22
2019-05-22T07:19:49.007Z,63.97
2019-05-22T07:22:18.529Z,64.56
2019-05-22T07:24:47.838Z,61.79
2019-05-22T07:27:26.526Z,60.29
2019-05-22T07:29:56.404Z,56.99
2019-05-22T07:32:26.083Z,57.47
2019-05-22T07:34:55.660Z,59.46
2019-05-22T07:37:25.101Z,61.79
2019-05-22T07:39:54.093Z,63.28
2019-05-22T07:42:23.202Z,64.32
2019-05-22T07:44:52.262Z,61.50
2019-05-22T07:47:23.117Z,58.91
2019-05-22T07:49:52.246Z,54.99
2019-05-22T07:52:21.660Z,56.44
2019-05-22T07:54:50.875Z,56.90
2019-05-22T07:57:22.580Z,59.33
2019-05-22T07:59:51.861Z,60.74
2019-05-22T08:02:23.081Z,61.82
2019-05-22T08:04:52.214Z,64.19
2019-05-22T08:07:23.018Z,61.05
2019-05-22T08:09:52.216Z,59.69
2019-05-22T08:12:22.042Z,55.43
2019-05-22T08:14:51.414Z,58.09
2019-05-22T08:17:21.202Z,59.86
2019-05-22T08:19:50.417Z,62.16
2019-05-22T08:22:19.594Z,63.10
2019-05-22T08:24:48.730Z,64.82
2019-05-22T08:27:18.969Z,61.05
2019-05-22T08:29:48.165Z,57.99
2019-05-22T08:32:18.030Z,56.68
2019-05-22T08:34:47.162Z,56.59
2019-05-22T08:37:18.602Z,57.51
2019-05-22T08:39:47.767Z,59.92
2019-05-22T08:42:18.064Z,62.68
2019-05-22T08:44:47.815Z,63.08
2019-05-22T08:50:01.412Z,58.10
2019-05-22T08:52:31.083Z,59.04
2019-05-22T08:55:00.167Z,60.79
2019-05-22T08:57:30.362Z,64.92
2019-05-22T08:59:59.562Z,63.61
2019-05-22T09:02:29.029Z,63.24
2019-05-22T09:04:58.322Z,58.23
2019-05-22T09:07:27.866Z,56.71
2019-05-22T09:09:56.970Z,59.02
2019-05-22T09:12:26.060Z,60.87
2019-05-22T09:14:55.224Z,64.15
2019-05-22T09:17:24.374Z,62.84
2019-05-22T09:19:53.420Z,59.28
2019-05-22T09:22:37.820Z,58.66
2019-05-22T09:24:54.075Z,61.04
2019-05-22T09:27:23.371Z,62.67
2019-05-22T09:29:52.556Z,66.64
2019-05-22T09:32:21.641Z,66.65
2019-05-22T09:34:50.687Z,64.38
2019-05-22T09:37:19.861Z,62.48
2019-05-22T09:39:48.945Z,60.97
2019-05-22T09:42:18.606Z,61.07
2019-05-22T10:30:14.018Z,62.98
2019-05-22T10:32:43.022Z,60.85
2019-05-22T10:35:12.480Z,61.08
2019-05-22T11:19:36.537Z,64.02
2019-05-22T11:22:06.430Z,59.47
2019-05-22T11:24:35.510Z,55.42
2019-05-22T11:27:04.662Z,56.70
2019-05-22T11:29:33.916Z,59.04
2019-05-22T11:32:04.079Z,60.65
2019-05-22T11:34:33.527Z,61.41
2019-05-22T11:37:03.343Z,62.38
2019-05-22T11:39:39.270Z,63.32
2019-05-22T11:42:05.195Z,60.98
2019-05-22T11:44:34.305Z,56.37
2019-05-22T11:47:03.661Z,56.45
2019-05-22T11:49:36.299Z,57.57
2019-05-22T11:52:06.486Z,58.09
2019-05-22T11:54:36.279Z,60.36
2019-05-22T11:57:05.580Z,60.74
2019-05-22T11:59:36.965Z,61.27
2019-05-22T12:02:07.279Z,62.82
2019-05-22T12:04:47.217Z,63.27
2019-05-22T12:07:07.318Z,59.21
2019-05-22T12:09:36.393Z,55.95
2019-05-22T12:12:05.484Z,56.62
2019-05-22T12:14:35.522Z,58.45
2019-05-22T12:17:04.787Z,60.11
2019-05-22T12:19:34.398Z,60.41
2019-05-22T12:22:03.401Z,60.38
2019-05-22T12:24:36.926Z,61.21
2019-05-22T12:27:03.278Z,61.71
2019-05-22T12:29:32.734Z,62.23
2019-05-22T12:32:01.937Z,61.99
2019-05-22T12:34:31.066Z,61.54
2019-05-22T12:37:00.078Z,61.17
2019-05-22T12:39:29.473Z,61.83
2019-05-22T12:41:59.459Z,62.79
2019-05-22T12:44:28.584Z,64.32
2019-05-22T12:46:57.604Z,59.46
2019-05-22T12:49:27.560Z,54.87
2019-05-22T12:51:56.944Z,54.10
2019-05-22T12:54:26.040Z,56.90
2019-05-22T12:56:55.701Z,57.04
2019-05-22T12:59:25.376Z,58.47
2019-05-22T13:01:54.388Z,58.49
2019-05-22T13:04:24.566Z,58.31
2019-05-22T13:06:53.651Z,58.50
2019-05-22T13:09:23.135Z,59.37
2019-05-22T13:11:52.219Z,59.00
2019-05-22T13:14:21.252Z,59.47
2019-05-22T13:16:50.963Z,59.94
2019-05-22T13:19:19.949Z,62.85
2019-05-22T13:21:52.248Z,64.53
2019-05-22T13:24:23.100Z,62.54
2019-05-22T13:26:52.458Z,60.90
2019-05-22T13:29:21.941Z,58.72
2019-05-22T13:31:51.369Z,55.75
2019-05-22T13:34:20.523Z,56.73
2019-05-22T13:36:49.798Z,57.89
2019-05-22T13:39:20.076Z,58.68
2019-05-22T13:41:49.612Z,61.78
2019-05-22T13:44:18.783Z,61.31
2019-05-22T13:46:47.881Z,60.94
2019-05-22T13:49:17.003Z,59.82
2019-05-22T13:51:46.069Z,60.20
2019-05-22T13:54:15.488Z,60.00
2019-05-22T13:56:45.257Z,59.13
2019-05-22T13:59:15.992Z,59.18
2019-05-22T14:01:45.397Z,59.84
2019-05-22T14:04:14.621Z,59.37
2019-05-22T14:06:43.973Z,60.01
2019-05-22T14:09:20.682Z,59.99
2019-05-22T14:11:45.990Z,60.13
2019-05-22T14:14:15.105Z,60.26
2019-05-22T14:16:49.168Z,60.11
2019-05-22T14:19:15.732Z,60.47
2019-05-22T14:21:51.438Z,60.79
2019-05-22T14:24:15.621Z,60.92
2019-05-22T14:26:44.684Z,61.28
2019-05-22T14:29:13.908Z,61.14
2019-05-22T14:31:42.949Z,61.21
2019-05-22T14:34:12.393Z,61.27
2019-05-22T14:36:41.859Z,64.40
2019-05-22T14:39:12.867Z,63.85
2019-05-22T14:41:41.913Z,63.34
2019-05-22T14:44:10.928Z,62.92
2019-05-22T14:46:40.008Z,61.95
2019-05-22T14:49:09.074Z,60.09
2019-05-22T14:51:38.366Z,59.14
2019-05-22T14:54:07.544Z,57.75
2019-05-22T14:56:36.729Z,57.81
2019-05-22T14:59:06.329Z,57.99
2019-05-22T15:01:35.413Z,60.72
2019-05-22T15:04:05.264Z,60.74
2019-05-22T15:06:34.404Z,62.15
2019-05-22T15:09:04.643Z,67.06
2019-05-22T15:11:33.737Z,64.80
2019-05-22T15:14:02.933Z,62.67
2019-05-22T15:16:32.093Z,60.19
2019-05-22T15:19:01.103Z,51.55
2019-05-22T15:21:30.254Z,49.27
2019-05-22T15:23:59.562Z,50.88
2019-05-22T15:26:29.016Z,54.24
2019-05-22T15:28:58.085Z,55.54
2019-05-22T15:31:27.188Z,55.96
2019-05-22T15:33:56.581Z,56.55
2019-05-22T15:36:26.070Z,58.56
2019-05-22T15:38:55.232Z,52.64
2019-05-22T15:41:25.901Z,53.89
2019-05-22T15:43:54.954Z,54.05
2019-05-22T15:46:24.651Z,53.05
2019-05-22T15:48:53.675Z,52.69
2019-05-22T15:51:26.350Z,52.34
2019-05-22T15:53:57.229Z,48.94
2019-05-22T15:56:31.201Z,49.36
2019-05-22T15:59:00.539Z,48.01
2019-05-22T16:01:29.958Z,50.82
2019-05-22T16:03:59.253Z,54.03
2019-05-22T16:06:29.096Z,55.73
2019-05-22T16:08:58.416Z,58.13
2019-05-22T16:11:27.672Z,59.46
2019-05-22T16:13:57.905Z,61.11
2019-05-22T16:16:26.933Z,62.54
2019-05-22T16:19:00.300Z,66.44
2019-05-22T16:21:29.510Z,65.40
2019-05-22T16:23:59.325Z,63.46
2019-05-22T16:26:28.824Z,61.77
2019-05-22T16:28:57.815Z,59.67
2019-05-22T16:31:26.918Z,58.63
2019-05-22T16:33:56.116Z,57.12
2019-05-22T16:36:25.818Z,57.42
2019-05-22T16:38:55.411Z,57.47
2019-05-22T16:41:24.507Z,59.06
2019-05-22T16:43:53.562Z,60.45
2019-05-22T16:46:23.463Z,62.73
2019-05-22T16:48:52.483Z,67.66
2019-05-22T16:51:22.456Z,66.56
2019-05-22T16:54:04.342Z,64.71
2019-05-22T16:56:34.468Z,63.38
2019-05-22T16:59:03.904Z,61.12
2019-05-22T17:01:33.271Z,60.89
2019-05-22T17:04:03.106Z,59.49
2019-05-22T17:06:32.495Z,57.97
2019-05-22T17:09:03.768Z,58.26
2019-05-22T17:11:33.053Z,59.78
2019-05-22T17:14:03.372Z,62.89
2019-05-22T17:16:34.091Z,67.05
2019-05-22T17:19:23.347Z,64.93
2019-05-22T17:21:35.819Z,63.96
2019-05-22T17:24:05.656Z,61.90
2019-05-22T17:26:35.481Z,60.13
2019-05-22T17:29:04.571Z,57.76
2019-05-22T17:31:33.609Z,55.67
2019-05-22T17:34:02.875Z,56.57
2019-05-22T17:36:32.358Z,57.87
2019-05-22T17:39:01.889Z,59.75
2019-05-22T17:41:32.461Z,62.04
2019-05-22T17:44:02.334Z,62.85
2019-05-22T17:46:32.198Z,65.28
2019-05-22T17:49:01.411Z,62.67
2019-05-22T17:51:31.093Z,61.52
2019-05-22T17:54:00.470Z,59.38
2019-05-22T17:56:29.542Z,56.39
2019-05-22T17:58:58.720Z,56.92
2019-05-22T18:01:27.983Z,58.38
2019-05-22T18:03:57.460Z,59.70
2019-05-22T18:06:26.663Z,60.74
2019-05-22T18:08:55.732Z,61.95
2019-05-22T18:11:24.930Z,64.56
2019-05-22T18:14:00.945Z,64.12
2019-05-22T18:16:31.233Z,62.61
2019-05-22T18:19:00.982Z,62.37
2019-05-22T18:21:31.225Z,60.85
2019-05-22T18:24:00.481Z,60.75
2019-05-22T18:26:30.061Z,60.44
2019-05-22T18:28:59.108Z,60.14
2019-05-22T18:31:28.300Z,59.60
2019-05-22T18:33:57.362Z,59.37
2019-05-22T18:36:26.394Z,58.28
2019-05-22T18:38:55.402Z,58.68
2019-05-22T18:41:24.536Z,60.08
2019-05-22T18:43:54.183Z,61.91
2019-05-22T18:46:23.483Z,63.72
2019-05-22T18:48:52.784Z,68.86
2019-05-22T18:51:21.803Z,68.26
2019-05-22T18:53:51.271Z,66.76
2019-05-22T18:56:20.545Z,65.52
2019-05-22T18:58:49.648Z,64.38
2019-05-22T19:01:18.914Z,63.36
2019-05-22T19:03:47.951Z,62.44
2019-05-22T19:06:29.644Z,60.06
2019-05-22T19:08:48.352Z,59.06
2019-05-22T19:11:17.437Z,57.00
2019-05-22T19:13:46.525Z,57.69
2019-05-22T19:16:15.626Z,58.63
2019-05-22T19:18:44.843Z,59.71
2019-05-22T19:21:14.534Z,61.23
2019-05-22T19:23:43.577Z,61.98
2019-05-22T19:26:12.675Z,63.53
2019-05-22T19:28:44.186Z,68.84
2019-05-22T19:31:12.801Z,67.61
2019-05-22T19:33:41.853Z,65.02
2019-05-22T19:36:10.965Z,63.16
2019-05-22T19:38:39.998Z,61.77
2019-05-22T19:41:09.610Z,61.06
2019-05-22T19:43:39.144Z,60.01
2019-05-22T19:46:08.756Z,58.78
2019-05-22T19:48:37.789Z,57.26
2019-05-22T19:51:07.253Z,57.46
2019-05-22T19:53:36.646Z,58.51
2019-05-22T19:56:06.517Z,60.12
2019-05-22T19:58:35.798Z,61.20
2019-05-22T20:01:05.371Z,62.84
2019-05-22T20:03:35.038Z,67.08
2019-05-22T20:06:05.511Z,64.01
2019-05-22T20:08:36.492Z,63.78
2019-05-22T20:11:05.722Z,62.14
2019-05-22T20:13:35.311Z,61.15
2019-05-22T20:16:04.793Z,60.09
2019-05-22T20:18:34.084Z,59.16
2019-05-22T20:21:03.691Z,57.64
2019-05-22T20:23:36.572Z,57.92
2019-05-22T20:26:04.979Z,59.10
2019-05-22T20:28:34.037Z,60.46
2019-05-22T20:31:03.168Z,61.76
2019-05-22T20:33:32.354Z,63.51
2019-05-22T20:36:01.726Z,65.99
2019-05-22T20:38:31.413Z,66.66
2019-05-22T20:41:00.590Z,64.89
2019-05-22T20:43:30.728Z,63.38
2019-05-22T20:46:00.509Z,62.03
2019-05-22T20:48:30.149Z,60.87
2019-05-22T20:50:59.875Z,59.95
2019-05-22T20:53:30.307Z,59.17
2019-05-22T20:55:59.894Z,57.87
2019-05-22T20:58:30.581Z,58.00
2019-05-22T21:01:00.773Z,59.04
2019-05-22T21:03:30.487Z,61.00
2019-05-22T21:06:00.169Z,63.63
2019-05-22T21:08:29.278Z,67.34
2019-05-22T21:10:58.839Z,65.74
2019-05-22T21:13:28.534Z,64.70
2019-05-22T21:15:58.608Z,63.37
2019-05-22T21:18:45.480Z,62.36
2019-05-22T21:21:15.974Z,61.18
2019-05-22T21:23:45.089Z,60.25
2019-05-22T21:26:15.597Z,59.21
2019-05-22T21:28:45.786Z,57.68
2019-05-22T21:31:16.522Z,58.01
2019-05-22T21:33:46.170Z,59.23
2019-05-22T21:36:16.360Z,60.71
2019-05-22T21:38:46.195Z,62.20
2019-05-22T21:41:16.348Z,66.57
2019-05-22T21:43:45.857Z,65.33
2019-05-22T21:46:14.937Z,63.94
2019-05-22T21:48:44.998Z,62.65
2019-05-22T21:51:14.764Z,61.31
2019-05-22T21:53:44.544Z,60.18
2019-05-22T21:56:13.702Z,59.10
2019-05-22T21:58:43.437Z,57.84
2019-05-22T22:01:12.502Z,58.03
2019-05-22T22:03:58.335Z,59.10
2019-05-22T22:06:32.749Z,60.89
2019-05-22T22:09:00.155Z,62.38
2019-05-22T22:11:29.338Z,67.26
2019-05-22T22:13:58.817Z,65.74
2019-05-22T22:16:28.202Z,65.19
2019-05-22T22:18:57.227Z,63.60
2019-05-22T22:21:27.520Z,62.37
2019-05-22T22:23:56.599Z,61.07
2019-05-22T22:26:26.713Z,60.14
2019-05-22T22:28:57.548Z,59.04
2019-05-22T22:31:28.234Z,57.42
2019-05-22T22:34:02.275Z,57.77
2019-05-22T22:36:31.783Z,59.00
2019-05-22T22:39:00.874Z,60.17
2019-05-22T22:41:29.885Z,62.31
2019-05-22T22:43:59.415Z,66.47
2019-05-22T22:46:46.870Z,65.98
2019-05-22T22:49:17.704Z,64.06
2019-05-22T22:51:47.576Z,62.66
2019-05-22T22:54:17.842Z,61.54
2019-05-22T22:56:47.551Z,60.12
2019-05-22T22:59:17.285Z,59.46
2019-05-22T23:01:50.373Z,57.66
2019-05-22T23:04:19.876Z,57.79
2019-05-22T23:06:49.024Z,59.13
2019-05-22T23:09:18.071Z,60.44
2019-05-22T23:11:48.516Z,61.70
2019-05-22T23:14:19.479Z,63.19
2019-05-22T23:16:48.704Z,67.61
2019-05-22T23:19:33.791Z,67.53
2019-05-22T23:22:03.093Z,65.42
2019-05-22T23:24:32.968Z,63.47
2019-05-22T23:27:02.179Z,62.22
2019-05-22T23:29:32.951Z,60.69
2019-05-22T23:32:04.112Z,59.70
2019-05-22T23:34:33.326Z,59.22
2019-05-22T23:37:02.868Z,57.97
2019-05-22T23:39:32.692Z,58.52
2019-05-22T23:42:07.301Z,59.55
2019-05-22T23:44:36.795Z,60.79
2019-05-22T23:47:07.512Z,62.48
2019-05-22T23:49:37.348Z,67.43
2019-05-22T23:52:08.254Z,66.65
2019-05-22T23:54:38.916Z,64.94
2019-05-22T23:57:09.917Z,63.38
2019-05-22T23:59:40.596Z,61.96
